Braunau, Austria
Current Conditions -  °F | °C
As of 5:20 AM on Thursday 23 Oct 2014 (Local Time) from LOWS Reporting Station
Heavy Rain Heavy Rain  
Wind Chill: 37°   Ceiling: 2000
Heat Index: 45°   Visibility: 4mi
Dew Point: 41°   Wind: 16mph
Humidity: 87%   Direction: 300°WNW
Pressure: 29.91"   Gusts: NA
Location:  48.26°N, 13.04°E
Report Text: LOWS 230420Z 30014KT 6000 +RA FEW008 SCT014 FEW020CB BKN020 07/05 Q1013 TEMPO 4000 TSRA
Loading
Personal Weather Stations






























Interactive Weather Map
Tropical Storm Tracking
New forecast layout! Learn more

10-Day Weather Forecast

Advertisements
Track Severe Weather on mobile